Time;durP1;ratioP1;P1;durP2;ratioP2;P2;SDS_P1;SDS_P2;PMS_P1;PMS_P2;Temp;Humidity;BMP_temperature;BMP_pressure;BME280_temperature;BME280_humidity;BME280_pressure;Samples;Min_cycle;Max_cycle;Signal;HPM_P1;HPM_P2
2023/10/31 00:02:12;;;;;;;0.50;0.40;;;14.50;99.90;;;;;;9980783;28;20034;-76
2023/10/31 00:07:02;;;;;;;0.73;0.40;;;14.50;99.90;;;;;;9981859;28;20065;-77
2023/10/31 00:11:53;;;;;;;0.43;0.20;;;14.50;99.90;;;;;;9973370;28;20072;-77
2023/10/31 00:16:44;;;;;;;2.15;0.50;;;14.40;99.90;;;;;;9980229;28;20034;-77
2023/10/31 00:21:34;;;;;;;1.67;0.80;;;14.40;99.90;;;;;;9978594;28;20042;-77
2023/10/31 00:26:25;;;;;;;1.13;0.35;;;14.40;99.90;;;;;;9978705;28;20089;-78
2023/10/31 00:31:16;;;;;;;0.77;0.30;;;14.50;99.90;;;;;;9976592;28;20404;-76
2023/10/31 00:36:07;;;;;;;0.50;0.40;;;14.50;99.90;;;;;;9981684;28;20535;-77
2023/10/31 00:40:58;;;;;;;0.60;0.32;;;14.40;99.90;;;;;;9979057;28;20050;-76
2023/10/31 00:45:48;;;;;;;1.10;0.35;;;14.40;99.90;;;;;;9970200;28;20039;-77
2023/10/31 00:50:39;;;;;;;0.50;0.25;;;14.40;99.90;;;;;;9965752;28;20042;-76
2023/10/31 00:55:30;;;;;;;1.23;0.60;;;14.50;99.90;;;;;;9975657;28;20404;-75
2023/10/31 01:00:21;;;;;;;0.20;0.15;;;14.40;99.90;;;;;;9971064;28;20124;-74
2023/10/31 01:05:11;;;;;;;0.60;0.40;;;14.40;99.90;;;;;;9974943;28;20054;-74
2023/10/31 01:10:03;;;;;;;1.25;0.40;;;14.20;99.90;;;;;;9963732;28;20030;-75
2023/10/31 01:14:55;;;;;;;0.22;0.20;;;14.30;99.90;;;;;;9956417;28;20146;-75
2023/10/31 01:19:45;;;;;;;1.02;0.40;;;14.30;99.90;;;;;;9967499;28;20050;-75
2023/10/31 01:24:36;;;;;;;0.90;0.50;;;14.20;99.90;;;;;;9955132;28;20042;-74
2023/10/31 01:29:26;;;;;;;1.70;0.50;;;14.20;99.90;;;;;;9964786;28;20399;-74
2023/10/31 01:34:17;;;;;;;0.55;0.30;;;14.30;99.90;;;;;;9971885;28;20662;-76
2023/10/31 01:39:08;;;;;;;1.23;0.68;;;14.30;99.90;;;;;;9960505;28;20043;-75
2023/10/31 01:43:58;;;;;;;0.20;0.20;;;14.20;99.90;;;;;;9968075;28;20125;-76
2023/10/31 01:48:49;;;;;;;0.47;0.45;;;14.30;99.90;;;;;;9963473;28;20065;-75
2023/10/31 01:53:40;;;;;;;0.50;0.40;;;14.10;99.90;;;;;;9929487;28;20057;-76
2023/10/31 01:58:35;;;;;;;0.20;0.20;;;14.10;99.90;;;;;;9926756;28;20085;-76
2023/10/31 02:03:27;;;;;;;0.67;0.40;;;14.20;99.90;;;;;;9919802;28;20029;-75
2023/10/31 02:08:17;;;;;;;0.93;0.30;;;14.10;99.90;;;;;;9940374;28;20759;-74
2023/10/31 02:13:15;;;;;;;0.35;0.20;;;14.10;99.90;;;;;;9932136;28;20037;-76
2023/10/31 02:18:07;;;;;;;0.40;0.30;;;14.10;99.90;;;;;;9918714;28;20397;-76
2023/10/31 02:22:58;;;;;;;0.20;0.20;;;14.00;99.90;;;;;;9926248;28;20090;-76
2023/10/31 02:27:48;;;;;;;0.30;0.22;;;14.10;99.90;;;;;;9937225;28;20844;-77
2023/10/31 02:32:39;;;;;;;0.40;0.20;;;14.00;99.90;;;;;;9932741;28;20046;-77
2023/10/31 02:37:30;;;;;;;0.82;0.47;;;14.00;99.90;;;;;;9953389;28;20022;-76
2023/10/31 02:42:21;;;;;;;0.35;0.22;;;14.00;99.90;;;;;;9948661;28;20074;-77
2023/10/31 02:47:11;;;;;;;0.80;0.30;;;13.90;99.90;;;;;;9944857;28;20046;-77
2023/10/31 02:52:02;;;;;;;0.22;0.20;;;13.90;99.90;;;;;;9961207;28;20038;-76
2023/10/31 02:56:53;;;;;;;0.80;0.38;;;14.00;99.90;;;;;;9985767;28;20044;-77
2023/10/31 03:01:43;;;;;;;0.35;0.35;;;13.90;99.90;;;;;;9975412;28;20073;-76
2023/10/31 03:06:34;;;;;;;0.25;0.22;;;14.00;99.90;;;;;;9976723;28;20050;-77
2023/10/31 03:11:25;;;;;;;3.03;0.20;;;13.80;99.90;;;;;;9967489;28;20031;-77
2023/10/31 03:16:16;;;;;;;2.13;0.40;;;13.80;99.90;;;;;;9968544;28;20045;-77
2023/10/31 03:21:07;;;;;;;1.23;0.38;;;13.80;99.90;;;;;;9975805;28;20040;-77
2023/10/31 03:25:58;;;;;;;0.60;0.30;;;13.80;99.90;;;;;;9973807;28;20050;-76
2023/10/31 03:30:49;;;;;;;0.45;0.28;;;13.80;99.90;;;;;;9968030;28;20596;-76
2023/10/31 03:35:40;;;;;;;0.73;0.50;;;13.80;99.90;;;;;;9981403;28;20030;-77
2023/10/31 03:40:31;;;;;;;0.52;0.47;;;13.80;99.90;;;;;;9981363;28;20034;-77
2023/10/31 03:45:21;;;;;;;0.85;0.63;;;13.80;99.90;;;;;;9972017;28;20054;-75
2023/10/31 03:50:12;;;;;;;1.30;0.45;;;13.70;99.90;;;;;;9957905;28;20042;-75
2023/10/31 03:55:03;;;;;;;3.20;0.40;;;13.70;99.90;;;;;;9980764;28;20037;-77
2023/10/31 03:59:54;;;;;;;0.90;0.20;;;13.70;99.90;;;;;;9973486;28;20147;-75
2023/10/31 04:04:44;;;;;;;0.20;0.20;;;13.80;99.90;;;;;;9969648;28;20139;-76
2023/10/31 04:09:35;;;;;;;1.35;0.20;;;13.90;99.90;;;;;;9973359;28;20034;-75
2023/10/31 04:14:26;;;;;;;1.10;0.30;;;13.90;99.90;;;;;;9964519;28;20572;-76
2023/10/31 04:19:16;;;;;;;0.85;0.30;;;13.80;99.90;;;;;;9965172;28;20022;-75
2023/10/31 04:24:07;;;;;;;0.63;0.50;;;13.80;99.90;;;;;;9971278;28;20382;-75
2023/10/31 04:28:58;;;;;;;0.55;0.40;;;13.80;99.90;;;;;;9964592;28;20033;-76
2023/10/31 04:33:48;;;;;;;0.40;0.38;;;13.80;99.90;;;;;;9970336;28;20484;-76
2023/10/31 04:38:39;;;;;;;0.90;0.30;;;13.80;99.90;;;;;;9964793;28;20089;-75
2023/10/31 04:43:30;;;;;;;0.30;0.20;;;13.80;99.90;;;;;;9961436;28;20042;-76
2023/10/31 04:48:20;;;;;;;2.03;0.38;;;13.80;99.90;;;;;;9964398;28;20701;-76
2023/10/31 04:53:11;;;;;;;0.52;0.32;;;13.80;99.90;;;;;;9970340;28;20050;-76
2023/10/31 04:58:02;;;;;;;0.93;0.40;;;13.80;99.90;;;;;;9976096;28;20022;-76
2023/10/31 05:02:52;;;;;;;0.90;0.35;;;13.70;99.90;;;;;;9973606;28;20081;-77
2023/10/31 05:07:43;;;;;;;1.45;0.30;;;13.70;99.90;;;;;;9970577;28;20062;-76
2023/10/31 05:12:34;;;;;;;0.88;0.30;;;13.80;99.90;;;;;;9957050;28;20026;-77
2023/10/31 05:17:24;;;;;;;0.73;0.30;;;13.70;99.90;;;;;;9954947;28;20038;-77
2023/10/31 05:22:15;;;;;;;1.27;0.38;;;13.50;99.90;;;;;;9967593;28;20026;-77
2023/10/31 05:27:07;;;;;;;1.35;0.63;;;13.50;99.90;;;;;;9967851;28;20149;-76
2023/10/31 05:31:58;;;;;;;1.23;0.50;;;13.40;99.90;;;;;;9971134;28;20500;-75
2023/10/31 05:36:49;;;;;;;1.10;0.47;;;13.40;99.90;;;;;;9977074;28;20034;-75
2023/10/31 05:41:39;;;;;;;2.10;0.45;;;13.50;99.90;;;;;;9977101;28;20045;-77
2023/10/31 05:46:30;;;;;;;1.98;0.45;;;13.60;99.90;;;;;;9961263;28;20043;-77
2023/10/31 05:51:21;;;;;;;0.63;0.30;;;13.60;99.90;;;;;;9969453;28;20042;-75
2023/10/31 05:56:13;;;;;;;1.77;0.50;;;13.50;99.90;;;;;;9972044;28;20528;-77
2023/10/31 06:01:04;;;;;;;2.03;0.80;;;13.60;99.90;;;;;;9967900;28;20033;-76
2023/10/31 06:05:55;;;;;;;2.05;0.40;;;13.60;99.90;;;;;;9970197;28;20038;-77
2023/10/31 06:10:46;;;;;;;2.30;0.43;;;13.60;99.90;;;;;;9960025;28;20023;-77
2023/10/31 06:15:37;;;;;;;0.77;0.60;;;13.60;99.90;;;;;;9950808;28;20093;-76
2023/10/31 06:20:27;;;;;;;2.58;0.50;;;13.50;99.90;;;;;;9957091;28;20102;-76
2023/10/31 06:25:18;;;;;;;1.05;0.47;;;13.50;99.90;;;;;;9971261;28;20409;-77
2023/10/31 06:30:09;;;;;;;1.55;0.40;;;13.50;99.90;;;;;;9967088;28;20158;-77
2023/10/31 06:35:00;;;;;;;0.63;0.40;;;13.50;99.90;;;;;;9972735;28;20023;-77
2023/10/31 06:39:51;;;;;;;0.57;0.30;;;13.40;99.90;;;;;;9995066;28;20138;-76
2023/10/31 06:44:41;;;;;;;1.58;0.60;;;13.30;99.90;;;;;;9983813;28;20068;-77
2023/10/31 06:49:32;;;;;;;1.27;0.75;;;13.40;99.90;;;;;;9983279;28;20046;-77
2023/10/31 06:54:22;;;;;;;0.57;0.50;;;13.40;99.90;;;;;;9989882;28;20042;-77
2023/10/31 06:59:13;;;;;;;6.78;1.20;;;13.40;99.90;;;;;;9983470;28;20539;-78
2023/10/31 07:04:04;;;;;;;3.13;0.88;;;13.40;99.90;;;;;;9997653;28;20046;-77
2023/10/31 07:08:55;;;;;;;2.40;0.80;;;13.40;99.90;;;;;;9983529;28;20026;-78
2023/10/31 07:13:45;;;;;;;1.85;0.90;;;13.30;99.90;;;;;;9965986;28;20041;-78
2023/10/31 07:18:36;;;;;;;2.53;0.80;;;13.40;99.90;;;;;;9966137;28;20391;-77
2023/10/31 07:23:26;;;;;;;2.08;0.70;;;13.50;99.90;;;;;;9981087;28;20035;-77
2023/10/31 07:28:18;;;;;;;3.78;0.80;;;13.50;99.90;;;;;;9974362;28;20162;-76
2023/10/31 07:33:09;;;;;;;2.45;0.90;;;13.50;99.90;;;;;;9971697;28;20053;-76
2023/10/31 07:37:59;;;;;;;1.95;0.75;;;13.40;99.90;;;;;;9970725;28;20034;-77
2023/10/31 07:42:50;;;;;;;2.00;0.70;;;13.40;99.90;;;;;;9958491;28;20030;-78
2023/10/31 07:47:40;;;;;;;1.15;0.68;;;13.50;99.90;;;;;;9963194;28;20045;-77
2023/10/31 07:52:31;;;;;;;2.38;0.70;;;13.40;99.90;;;;;;9972052;28;20057;-77
2023/10/31 07:57:22;;;;;;;1.27;0.47;;;13.40;99.90;;;;;;9976904;28;20037;-78
2023/10/31 08:02:13;;;;;;;1.85;0.70;;;13.40;99.90;;;;;;9972549;28;20042;-76
2023/10/31 08:07:03;;;;;;;1.70;0.60;;;13.40;99.90;;;;;;9979875;28;20034;-74
2023/10/31 08:11:54;;;;;;;3.35;1.20;;;13.40;99.90;;;;;;9964057;28;20093;-74
2023/10/31 08:16:45;;;;;;;1.17;0.70;;;13.50;99.90;;;;;;9970143;28;20417;-74
2023/10/31 08:21:37;;;;;;;2.25;0.85;;;13.50;99.90;;;;;;9969415;28;20412;-74
2023/10/31 08:26:27;;;;;;;2.03;0.80;;;13.40;99.90;;;;;;9968856;28;20471;-75
2023/10/31 08:31:18;;;;;;;1.80;0.93;;;13.50;99.90;;;;;;9962023;28;20125;-73
2023/10/31 08:36:10;;;;;;;1.77;1.20;;;13.40;99.90;;;;;;9975789;28;20480;-74
2023/10/31 08:41:00;;;;;;;1.52;0.90;;;13.40;99.90;;;;;;9978552;28;20030;-74
2023/10/31 08:45:51;;;;;;;2.20;1.00;;;13.50;99.90;;;;;;9959146;28;20051;-74
2023/10/31 08:50:42;;;;;;;2.95;0.95;;;13.60;99.90;;;;;;9978722;28;20085;-74
2023/10/31 08:55:32;;;;;;;1.25;0.52;;;13.70;99.90;;;;;;9977363;28;20173;-74
2023/10/31 09:00:23;;;;;;;2.35;0.68;;;13.80;99.90;;;;;;9980696;28;20025;-74
2023/10/31 09:05:14;;;;;;;1.45;1.20;;;13.70;99.90;;;;;;9971275;28;20665;-75
2023/10/31 09:10:05;;;;;;;1.98;0.75;;;13.80;99.90;;;;;;9971149;28;20041;-75
2023/10/31 09:14:56;;;;;;;3.13;0.93;;;13.90;99.90;;;;;;9966500;28;20558;-74
2023/10/31 09:19:46;;;;;;;2.65;1.48;;;13.90;99.90;;;;;;9954667;28;20026;-75
2023/10/31 09:24:37;;;;;;;3.03;0.98;;;13.90;99.90;;;;;;9976045;28;20084;-73
2023/10/31 09:29:28;;;;;;;2.22;1.05;;;14.00;99.90;;;;;;9965514;28;20142;-73
2023/10/31 09:34:18;;;;;;;3.65;1.05;;;14.00;99.90;;;;;;9969952;28;20510;-74
2023/10/31 09:39:09;;;;;;;6.97;0.98;;;14.10;99.90;;;;;;9962076;28;20034;-75
2023/10/31 09:44:00;;;;;;;2.38;1.20;;;14.20;99.90;;;;;;9977164;28;20508;-76
2023/10/31 09:48:51;;;;;;;1.50;0.77;;;14.20;99.90;;;;;;9942257;28;20126;-76
2023/10/31 09:53:45;;;;;;;5.28;1.67;;;14.20;99.90;;;;;;9972677;28;20417;-76
2023/10/31 09:58:36;;;;;;;3.05;0.93;;;14.30;99.90;;;;;;9977019;28;20043;-73
2023/10/31 10:03:27;;;;;;;1.48;0.93;;;14.40;99.90;;;;;;9969953;28;20022;-73
2023/10/31 10:08:19;;;;;;;0.82;0.75;;;14.40;99.90;;;;;;9975293;28;20122;-73
2023/10/31 10:13:10;;;;;;;2.50;0.93;;;14.40;99.90;;;;;;9972006;28;21492;-74
2023/10/31 10:18:01;;;;;;;2.53;0.98;;;14.40;99.90;;;;;;9961113;28;20026;-74
2023/10/31 10:22:52;;;;;;;1.90;0.60;;;14.50;99.90;;;;;;9980698;28;20042;-75
2023/10/31 10:27:43;;;;;;;1.05;0.68;;;14.40;99.90;;;;;;9981409;28;20030;-75
2023/10/31 10:32:34;;;;;;;2.60;0.80;;;14.40;99.90;;;;;;9983319;28;20027;-73
2023/10/31 10:37:27;;;;;;;7.53;1.00;;;14.40;99.90;;;;;;9982723;28;20034;-74
2023/10/31 10:42:18;;;;;;;4.15;1.20;;;14.20;99.90;;;;;;9982288;28;20492;-73
2023/10/31 10:47:12;;;;;;;2.67;0.80;;;14.20;99.90;;;;;;9973724;28;20858;-75
2023/10/31 10:52:25;;;;;;;1.95;0.80;;;14.30;99.90;;;;;;9966232;28;20046;-75
2023/10/31 10:57:19;;;;;;;1.35;0.80;;;14.30;99.90;;;;;;9982195;28;20042;-74
2023/10/31 11:02:11;;;;;;;3.33;1.00;;;14.30;99.90;;;;;;9982357;28;20038;-74
2023/10/31 11:07:02;;;;;;;3.28;0.80;;;14.30;99.90;;;;;;9982679;28;20030;-78
2023/10/31 11:11:54;;;;;;;1.77;0.98;;;14.30;99.90;;;;;;9982710;28;20113;-74
2023/10/31 11:16:51;;;;;;;3.03;1.08;;;14.30;99.90;;;;;;9972632;28;20055;-74
2023/10/31 11:21:59;;;;;;;4.18;0.90;;;14.30;99.90;;;;;;9970996;28;20142;-74
2023/10/31 11:26:58;;;;;;;1.67;1.17;;;14.50;99.90;;;;;;9976263;28;20086;-73
2023/10/31 11:31:49;;;;;;;2.85;1.33;;;14.50;99.90;;;;;;9976887;28;20033;-72
2023/10/31 11:36:39;;;;;;;3.08;0.98;;;14.40;99.90;;;;;;9974297;28;20109;-73
2023/10/31 11:41:32;;;;;;;3.28;1.50;;;14.40;99.90;;;;;;9970754;28;20555;-74
2023/10/31 11:46:24;;;;;;;2.58;0.98;;;14.50;99.90;;;;;;9971547;28;20136;-73
2023/10/31 11:51:15;;;;;;;2.95;1.40;;;14.60;99.90;;;;;;9958258;28;20074;-73
2023/10/31 11:56:08;;;;;;;4.82;2.03;;;14.70;99.90;;;;;;9977200;28;20850;-71
2023/10/31 12:01:09;;;;;;;1.55;0.82;;;14.80;99.90;;;;;;9980174;28;20543;-74
2023/10/31 12:06:00;;;;;;;1.58;0.73;;;14.80;99.90;;;;;;9979619;28;20138;-76
2023/10/31 12:10:51;;;;;;;4.13;1.10;;;14.80;99.90;;;;;;9979149;28;20106;-75
2023/10/31 12:15:52;;;;;;;6.45;2.35;;;14.80;99.90;;;;;;9972316;28;20041;-75
2023/10/31 12:20:51;;;;;;;2.80;0.98;;;14.80;99.90;;;;;;9973992;28;20026;-75
2023/10/31 12:25:52;;;;;;;2.70;0.85;;;14.80;99.90;;;;;;9972651;28;20042;-74
2023/10/31 12:30:46;;;;;;;3.58;1.30;;;14.80;99.90;;;;;;9985954;28;20542;-73
2023/10/31 12:35:37;;;;;;;3.30;0.83;;;14.80;99.90;;;;;;9978663;28;20116;-74
2023/10/31 12:40:28;;;;;;;1.15;0.80;;;14.70;99.90;;;;;;9977599;28;20172;-73
2023/10/31 12:45:19;;;;;;;3.20;0.90;;;14.70;99.90;;;;;;9971429;28;20381;-73
2023/10/31 12:50:14;;;;;;;1.52;0.80;;;14.70;99.90;;;;;;9983236;28;20101;-74
2023/10/31 12:55:15;;;;;;;1.38;0.68;;;14.80;99.90;;;;;;9970877;28;20049;-74
2023/10/31 13:00:10;;;;;;;3.05;1.17;;;14.80;99.90;;;;;;9957681;28;20170;-73
2023/10/31 13:05:10;;;;;;;0.95;0.85;;;14.80;99.90;;;;;;9971499;28;20108;-73
2023/10/31 13:10:01;;;;;;;3.53;1.35;;;14.80;99.90;;;;;;9981043;28;20465;-73
2023/10/31 13:14:52;;;;;;;1.60;0.60;;;14.90;99.90;;;;;;9976945;28;20109;-78
2023/10/31 13:19:42;;;;;;;2.80;0.70;;;14.90;99.90;;;;;;9974251;28;20030;-74
2023/10/31 13:24:34;;;;;;;0.63;0.43;;;14.90;99.90;;;;;;9970872;28;20065;-75
2023/10/31 13:29:25;;;;;;;2.08;0.68;;;14.80;99.90;;;;;;9973905;28;20030;-74
2023/10/31 13:34:15;;;;;;;0.60;0.40;;;14.90;99.90;;;;;;9977336;28;20125;-74
2023/10/31 13:39:06;;;;;;;1.10;0.60;;;14.80;99.90;;;;;;9972333;28;20390;-76
2023/10/31 13:43:57;;;;;;;1.50;0.65;;;14.80;99.90;;;;;;9965759;28;20643;-75
2023/10/31 13:48:47;;;;;;;3.40;0.68;;;14.80;99.90;;;;;;9956517;28;20031;-74
2023/10/31 13:53:38;;;;;;;2.30;0.50;;;14.80;99.90;;;;;;9950632;28;20142;-74
2023/10/31 13:58:28;;;;;;;1.10;0.50;;;14.80;99.90;;;;;;9947929;28;20143;-74
2023/10/31 14:03:20;;;;;;;1.25;0.80;;;14.90;99.90;;;;;;9958845;28;20034;-72
2023/10/31 14:08:10;;;;;;;2.25;0.65;;;14.90;99.90;;;;;;9970866;28;20584;-73
2023/10/31 14:13:01;;;;;;;2.67;0.50;;;15.00;99.90;;;;;;9972447;28;20105;-73
2023/10/31 14:17:52;;;;;;;2.67;1.20;;;14.90;99.90;;;;;;9965836;28;20401;-73
2023/10/31 14:22:48;;;;;;;1.52;0.70;;;15.00;99.90;;;;;;9966372;28;20489;-75
2023/10/31 14:27:39;;;;;;;1.45;0.70;;;15.00;99.90;;;;;;9953777;28;20176;-75
2023/10/31 14:32:29;;;;;;;0.75;0.55;;;15.00;99.90;;;;;;9949626;28;20181;-73
2023/10/31 14:37:21;;;;;;;0.73;0.63;;;15.10;99.90;;;;;;9973300;28;20129;-73
2023/10/31 14:42:11;;;;;;;0.98;0.70;;;15.10;99.90;;;;;;9964524;28;20512;-73
2023/10/31 14:47:02;;;;;;;0.38;0.28;;;15.20;99.90;;;;;;9958844;28;20266;-74
2023/10/31 14:51:53;;;;;;;0.68;0.38;;;15.10;99.90;;;;;;9972682;28;20047;-73
2023/10/31 14:56:44;;;;;;;0.47;0.32;;;15.00;99.90;;;;;;9971722;28;20485;-72
2023/10/31 15:01:34;;;;;;;0.80;0.35;;;15.00;99.90;;;;;;9973799;28;20106;-72
2023/10/31 15:06:25;;;;;;;0.93;0.40;;;15.00;99.90;;;;;;9966376;28;20070;-71
2023/10/31 15:11:16;;;;;;;0.43;0.32;;;14.90;99.90;;;;;;9976368;28;20030;-75
2023/10/31 15:16:07;;;;;;;0.93;0.50;;;14.80;99.90;;;;;;9976137;28;20026;-72
2023/10/31 15:20:59;;;;;;;0.50;0.30;;;14.90;99.90;;;;;;9973725;28;20019;-73
2023/10/31 15:25:50;;;;;;;1.15;0.40;;;14.80;99.90;;;;;;9992593;28;20049;-72
2023/10/31 15:30:41;;;;;;;1.10;0.45;;;14.80;99.90;;;;;;9951551;28;20042;-72
2023/10/31 15:35:31;;;;;;;0.60;0.60;;;14.90;99.90;;;;;;9962365;28;20117;-72
2023/10/31 15:40:22;;;;;;;0.90;0.40;;;14.90;99.90;;;;;;9980441;28;20084;-71
2023/10/31 15:45:13;;;;;;;2.30;0.80;;;14.90;99.90;;;;;;9974061;28;20129;-75
2023/10/31 15:50:04;;;;;;;0.65;0.40;;;14.90;99.90;;;;;;9969326;28;20393;-72
2023/10/31 15:54:55;;;;;;;2.92;0.70;;;14.90;99.90;;;;;;9977307;28;20647;-74
2023/10/31 15:59:45;;;;;;;0.30;0.30;;;14.90;99.90;;;;;;9980256;28;20034;-78
2023/10/31 16:04:36;;;;;;;1.55;0.70;;;14.90;99.90;;;;;;9977805;28;20089;-78
2023/10/31 16:09:27;;;;;;;1.13;0.52;;;14.80;99.90;;;;;;9978295;28;20033;-76
2023/10/31 16:14:21;;;;;;;2.17;1.65;;;14.70;99.90;;;;;;9977397;28;20041;-76
2023/10/31 16:19:12;;;;;;;1.17;0.60;;;14.70;99.90;;;;;;9974943;28;20077;-75
2023/10/31 16:24:03;;;;;;;0.70;0.40;;;14.70;99.90;;;;;;9979921;28;20435;-76
2023/10/31 16:28:54;;;;;;;2.60;1.00;;;14.70;99.90;;;;;;9971484;28;20037;-77
2023/10/31 16:33:45;;;;;;;0.32;0.30;;;14.70;99.90;;;;;;9980385;28;20080;-75
2023/10/31 16:38:36;;;;;;;1.17;0.32;;;14.70;99.90;;;;;;9977070;28;20037;-77
2023/10/31 16:43:26;;;;;;;0.70;0.60;;;14.60;99.90;;;;;;9976324;28;20547;-74
2023/10/31 16:48:17;;;;;;;1.13;0.70;;;14.60;99.90;;;;;;9970921;28;20764;-73
2023/10/31 16:53:07;;;;;;;2.25;0.50;;;14.70;99.90;;;;;;9965288;28;20177;-73
2023/10/31 16:57:58;;;;;;;0.43;0.35;;;14.70;99.90;;;;;;9961386;28;20154;-74
2023/10/31 17:02:49;;;;;;;2.15;0.82;;;14.60;99.90;;;;;;9964036;28;20488;-73
2023/10/31 17:07:40;;;;;;;1.38;0.45;;;14.70;99.90;;;;;;9959140;28;20042;-73
2023/10/31 17:12:30;;;;;;;0.95;0.40;;;14.70;99.90;;;;;;9963259;28;20026;-74
2023/10/31 17:17:21;;;;;;;0.95;0.50;;;14.60;99.90;;;;;;9973791;28;20113;-80
2023/10/31 17:22:12;;;;;;;2.78;0.98;;;14.60;99.90;;;;;;9968619;28;20039;-76
2023/10/31 17:27:03;;;;;;;0.77;0.50;;;14.60;99.90;;;;;;9975572;28;20508;-76
2023/10/31 17:31:53;;;;;;;1.27;0.52;;;14.60;99.90;;;;;;9955760;28;20031;-76
2023/10/31 17:36:44;;;;;;;2.90;1.17;;;14.60;99.90;;;;;;9961581;28;20030;-76
2023/10/31 17:41:35;;;;;;;2.50;0.80;;;14.70;99.90;;;;;;9973209;28;20438;-76
2023/10/31 17:46:25;;;;;;;0.95;0.77;;;14.70;99.90;;;;;;9972819;28;20583;-76
2023/10/31 17:51:16;;;;;;;0.60;0.60;;;14.70;99.90;;;;;;9969153;28;20054;-75
2023/10/31 17:56:07;;;;;;;1.63;0.88;;;14.70;99.90;;;;;;9958738;28;20547;-76
2023/10/31 18:00:58;;;;;;;0.70;0.52;;;14.60;99.90;;;;;;9957810;28;20038;-76
2023/10/31 18:05:48;;;;;;;1.40;0.90;;;14.70;99.90;;;;;;9957889;28;20041;-75
2023/10/31 18:10:39;;;;;;;1.30;1.20;;;14.70;99.90;;;;;;9950282;28;20031;-74
2023/10/31 18:15:30;;;;;;;2.80;1.42;;;14.60;99.90;;;;;;9972664;28;20044;-75
2023/10/31 18:20:20;;;;;;;2.78;0.98;;;14.70;99.90;;;;;;9974928;28;20037;-75
2023/10/31 18:25:11;;;;;;;2.28;1.00;;;14.70;99.90;;;;;;9958204;28;20519;-75
2023/10/31 18:30:02;;;;;;;0.95;0.55;;;14.70;99.90;;;;;;9968053;28;20084;-76
2023/10/31 18:34:53;;;;;;;1.50;1.00;;;14.70;99.90;;;;;;9985044;28;20503;-76
2023/10/31 18:39:43;;;;;;;1.33;0.73;;;14.70;99.90;;;;;;9985014;28;20030;-75
2023/10/31 18:44:35;;;;;;;1.75;0.80;;;14.70;99.90;;;;;;9980394;28;20040;-74
2023/10/31 18:49:26;;;;;;;3.92;1.27;;;14.70;99.90;;;;;;9978107;28;20059;-74
2023/10/31 18:54:17;;;;;;;0.57;0.55;;;14.70;99.90;;;;;;9976636;28;20026;-74
2023/10/31 18:59:07;;;;;;;1.58;0.50;;;14.70;99.90;;;;;;9965858;28;20150;-74
2023/10/31 19:03:58;;;;;;;0.90;0.80;;;14.60;99.90;;;;;;9967627;28;20030;-74
2023/10/31 19:08:49;;;;;;;1.38;0.65;;;14.50;99.90;;;;;;9960909;28;20048;-74
2023/10/31 19:13:40;;;;;;;1.67;0.90;;;14.50;99.90;;;;;;9976467;28;20026;-74
2023/10/31 19:18:30;;;;;;;1.45;1.00;;;14.40;99.90;;;;;;9979430;28;20045;-76
2023/10/31 19:23:21;;;;;;;1.88;0.70;;;14.50;99.90;;;;;;9989071;28;20476;-73
2023/10/31 19:28:12;;;;;;;2.72;1.10;;;14.40;99.90;;;;;;9982643;28;20842;-75
2023/10/31 19:33:03;;;;;;;2.50;1.33;;;14.30;99.90;;;;;;9981970;28;20033;-75
2023/10/31 19:37:53;;;;;;;3.78;1.48;;;14.40;99.90;;;;;;9978825;28;20750;-76
2023/10/31 19:42:44;;;;;;;1.15;0.90;;;14.50;99.90;;;;;;9977257;28;20493;-75
2023/10/31 19:47:35;;;;;;;4.07;1.00;;;14.50;99.90;;;;;;9977492;28;20040;-75
2023/10/31 19:52:26;;;;;;;2.70;1.05;;;14.40;99.90;;;;;;9973737;28;20444;-73
2023/10/31 19:57:17;;;;;;;1.40;0.85;;;14.50;99.90;;;;;;9962831;28;20089;-75
2023/10/31 20:02:08;;;;;;;2.03;1.08;;;14.40;99.90;;;;;;9958345;28;20492;-76
2023/10/31 20:06:59;;;;;;;1.52;0.80;;;14.40;99.90;;;;;;9968514;28;20049;-75
2023/10/31 20:11:50;;;;;;;2.20;1.13;;;14.40;99.90;;;;;;9975838;28;20026;-73
2023/10/31 20:16:40;;;;;;;2.35;1.42;;;14.50;99.90;;;;;;9970882;28;20031;-74
2023/10/31 20:21:31;;;;;;;3.33;0.85;;;14.50;99.90;;;;;;9979509;28;20034;-74
2023/10/31 20:26:22;;;;;;;2.00;1.02;;;14.40;99.90;;;;;;9979889;28;20511;-73
2023/10/31 20:31:12;;;;;;;3.65;1.08;;;14.30;99.90;;;;;;9949250;28;20030;-73
2023/10/31 20:36:03;;;;;;;2.58;1.35;;;14.30;99.90;;;;;;9976594;28;20027;-74
2023/10/31 20:40:54;;;;;;;1.23;0.80;;;14.30;99.90;;;;;;9978571;28;20061;-74
2023/10/31 20:45:45;;;;;;;2.38;0.70;;;14.30;99.90;;;;;;9974592;28;20807;-74
2023/10/31 20:50:35;;;;;;;1.63;1.05;;;14.30;99.90;;;;;;9967397;28;20109;-74
2023/10/31 20:55:26;;;;;;;3.03;1.05;;;14.30;99.90;;;;;;9971819;28;20097;-75
2023/10/31 21:00:17;;;;;;;2.83;1.00;;;14.30;99.90;;;;;;9961066;28;20041;-75
2023/10/31 21:05:08;;;;;;;0.85;0.68;;;14.30;99.90;;;;;;9961340;28;20516;-75
2023/10/31 21:09:58;;;;;;;3.55;1.02;;;14.20;99.90;;;;;;9961910;28;20033;-75
2023/10/31 21:14:49;;;;;;;1.63;1.02;;;14.10;99.90;;;;;;9976760;28;20038;-74
2023/10/31 21:19:40;;;;;;;2.08;1.40;;;14.20;99.90;;;;;;9971651;28;20038;-75
2023/10/31 21:24:31;;;;;;;1.25;0.75;;;14.10;99.90;;;;;;9955718;28;20623;-76
2023/10/31 21:29:21;;;;;;;1.00;0.90;;;14.10;99.90;;;;;;9951410;28;20034;-76
2023/10/31 21:34:12;;;;;;;2.55;1.17;;;14.10;99.90;;;;;;9943160;28;20046;-76
2023/10/31 21:39:04;;;;;;;1.50;1.15;;;14.00;99.90;;;;;;9965326;28;20496;-75
2023/10/31 21:43:54;;;;;;;2.05;0.98;;;14.10;99.90;;;;;;9965142;28;20110;-75
2023/10/31 21:48:47;;;;;;;3.03;1.40;;;14.10;99.90;;;;;;9972416;28;20137;-75
2023/10/31 21:53:40;;;;;;;1.17;0.88;;;14.10;99.90;;;;;;9972183;28;20042;-75
2023/10/31 21:58:30;;;;;;;2.25;0.98;;;14.00;99.90;;;;;;9961029;28;20508;-75
2023/10/31 22:03:21;;;;;;;1.35;1.00;;;14.00;99.90;;;;;;9955056;28;20128;-73
2023/10/31 22:08:13;;;;;;;1.30;1.08;;;14.00;99.90;;;;;;9961630;28;20492;-74
2023/10/31 22:13:04;;;;;;;2.55;1.38;;;14.10;99.90;;;;;;9967877;28;20213;-75
2023/10/31 22:17:55;;;;;;;1.60;1.02;;;14.10;99.90;;;;;;9972172;28;20027;-75
2023/10/31 22:22:46;;;;;;;2.13;1.25;;;14.10;99.90;;;;;;9980950;28;20041;-74
2023/10/31 22:27:36;;;;;;;3.35;1.27;;;14.00;99.90;;;;;;9977458;28;20049;-73
2023/10/31 22:32:27;;;;;;;1.67;1.13;;;14.10;99.90;;;;;;9976887;28;20403;-80
2023/10/31 22:37:18;;;;;;;1.67;0.98;;;13.90;99.90;;;;;;9984416;28;20069;-85
2023/10/31 22:42:09;;;;;;;1.63;1.50;;;14.10;99.90;;;;;;9994169;28;20035;-78
2023/10/31 22:47:00;;;;;;;2.28;1.00;;;14.00;99.90;;;;;;9976814;28;20034;-79
2023/10/31 22:51:51;;;;;;;2.47;1.80;;;14.00;99.90;;;;;;9970821;28;20085;-77
2023/10/31 22:56:42;;;;;;;1.67;1.00;;;14.00;99.90;;;;;;9968516;28;20026;-79
2023/10/31 23:01:33;;;;;;;1.92;0.90;;;13.90;99.90;;;;;;9964359;28;20037;-79
2023/10/31 23:06:27;;;;;;;4.82;1.25;;;14.00;99.90;;;;;;9977150;28;20034;-73
2023/10/31 23:11:18;;;;;;;2.55;1.00;;;13.90;99.90;;;;;;9968508;28;20034;-74
2023/10/31 23:16:08;;;;;;;2.05;1.45;;;14.00;99.90;;;;;;9979838;28;20040;-74
2023/10/31 23:20:59;;;;;;;1.33;1.10;;;14.00;99.90;;;;;;9977802;28;20105;-74
2023/10/31 23:25:51;;;;;;;3.58;1.33;;;14.00;99.90;;;;;;9982923;28;20027;-74
2023/10/31 23:30:42;;;;;;;2.15;1.10;;;14.00;99.90;;;;;;9967417;28;20321;-73
2023/10/31 23:35:33;;;;;;;4.95;1.08;;;14.10;99.90;;;;;;9971057;28;20065;-74
2023/10/31 23:40:23;;;;;;;2.17;1.10;;;14.10;99.90;;;;;;9985667;28;20038;-73
2023/10/31 23:45:14;;;;;;;3.78;0.90;;;14.00;99.90;;;;;;9969951;28;20456;-74
2023/10/31 23:50:05;;;;;;;2.45;0.80;;;14.10;99.90;;;;;;9976257;28;20054;-74
2023/10/31 23:54:56;;;;;;;2.67;0.95;;;13.90;99.90;;;;;;9965339;28;20134;-74
2023/10/31 23:59:46;;;;;;;2.25;0.70;;;14.00;99.90;;;;;;9962343;28;20110;-74
